createdAt,value
2019-04-22T00:00:02.890Z,13.60
2019-04-22T00:02:40.017Z,13.90
2019-04-22T00:05:16.396Z,14.00
2019-04-22T00:08:03.241Z,13.90
2019-04-22T00:10:40.729Z,13.90
2019-04-22T00:13:09.403Z,13.70
2019-04-22T00:15:34.227Z,13.50
2019-04-22T00:18:13.344Z,13.40
2019-04-22T00:20:42.285Z,13.20
2019-04-22T00:23:12.921Z,13.10
2019-04-22T00:25:53.949Z,12.90
2019-04-22T00:28:19.928Z,12.90
2019-04-22T00:30:47.099Z,12.70
2019-04-22T00:33:24.518Z,12.70
2019-04-22T00:35:54.514Z,12.80
2019-04-22T00:38:31.551Z,12.70
2019-04-22T00:41:00.518Z,12.60
2019-04-22T00:43:33.439Z,12.50
2019-04-22T00:45:55.775Z,12.40
2019-04-22T00:48:37.979Z,12.30
2019-04-22T00:51:10.035Z,12.30
2019-04-22T00:53:35.806Z,12.20
2019-04-22T00:58:40.750Z,12.10
2019-04-22T01:01:20.503Z,12.00
2019-04-22T01:03:51.098Z,12.00
2019-04-22T01:11:24.937Z,11.70
2019-04-22T01:13:49.538Z,11.60
2019-04-22T01:16:26.332Z,11.50
2019-04-22T01:18:57.463Z,11.50
2019-04-22T01:21:28.991Z,11.50
2019-04-22T01:23:57.561Z,11.50
2019-04-22T01:26:33.133Z,11.40
2019-04-22T01:28:59.572Z,11.30
2019-04-22T01:31:20.463Z,11.30
2019-04-22T01:34:04.345Z,11.20
2019-04-22T01:36:38.665Z,11.20
2019-04-22T01:39:15.400Z,11.10
2019-04-22T01:41:55.164Z,11.10
2019-04-22T01:46:50.699Z,11.10
2019-04-22T01:49:25.701Z,11.00
2019-04-22T01:52:01.492Z,10.90
2019-04-22T01:54:29.738Z,10.90
2019-04-22T01:56:58.416Z,10.80
2019-04-22T01:59:19.869Z,10.80
2019-04-22T02:04:39.740Z,10.60
2019-04-22T02:07:01.841Z,10.70
2019-04-22T02:09:38.087Z,10.60
2019-04-22T02:12:14.681Z,10.60
2019-04-22T02:14:39.922Z,10.60
2019-04-22T02:17:17.470Z,10.50
2019-04-22T02:19:52.224Z,10.50
2019-04-22T02:22:17.997Z,10.50
2019-04-22T02:24:46.692Z,10.50
2019-04-22T02:27:17.750Z,10.40
2019-04-22T02:29:47.426Z,10.30
2019-04-22T02:35:11.673Z,10.40
2019-04-22T02:37:23.467Z,10.20
2019-04-22T02:42:45.826Z,10.20
2019-04-22T02:47:49.927Z,10.30
2019-04-22T02:55:07.212Z,10.10
2019-04-22T02:57:55.083Z,10.10
2019-04-22T03:00:14.435Z,10.10
2019-04-22T03:02:50.859Z,10.10
2019-04-22T03:05:08.957Z,10.00
2019-04-22T03:07:55.820Z,9.90
2019-04-22T03:10:20.704Z,9.90
2019-04-22T03:12:41.144Z,9.90
2019-04-22T03:15:12.019Z,9.90
2019-04-22T03:17:57.937Z,9.90
2019-04-22T03:20:22.083Z,9.90
2019-04-22T03:22:55.455Z,9.90
2019-04-22T03:25:51.684Z,9.90
2019-04-22T03:27:52.507Z,9.80
2019-04-22T03:33:12.301Z,9.80
2019-04-22T03:38:18.485Z,9.70
2019-04-22T03:40:54.976Z,9.70
2019-04-22T03:43:13.719Z,9.70
2019-04-22T03:45:32.029Z,9.70
2019-04-22T03:48:07.888Z,9.70
2019-04-22T03:53:14.988Z,9.70
2019-04-22T03:55:49.057Z,9.70
2019-04-22T03:58:10.573Z,9.60
2019-04-22T04:01:06.048Z,9.60
2019-04-22T04:03:19.341Z,9.60
2019-04-22T04:06:06.654Z,9.70
2019-04-22T04:10:55.292Z,9.70
2019-04-22T04:13:23.132Z,9.70
2019-04-22T04:16:04.733Z,9.70
2019-04-22T04:18:39.180Z,9.90
2019-04-22T04:31:17.462Z,10.00
2019-04-22T04:33:50.930Z,10.00
2019-04-22T04:36:14.658Z,10.10
2019-04-22T04:38:46.531Z,10.10
2019-04-22T04:43:59.749Z,10.30
2019-04-22T04:46:27.104Z,10.40
2019-04-22T04:49:00.067Z,10.50
2019-04-22T04:54:01.065Z,10.60
2019-04-22T04:56:34.399Z,10.70
2019-04-22T04:59:06.330Z,10.90
2019-04-22T05:01:39.747Z,11.20
2019-04-22T05:04:04.622Z,11.40
2019-04-22T05:06:46.688Z,11.50
2019-04-22T05:09:15.034Z,11.60
2019-04-22T05:11:50.215Z,11.70
2019-04-22T05:14:17.282Z,12.00
2019-04-22T05:19:07.623Z,12.20
2019-04-22T05:21:29.863Z,12.40
2019-04-22T05:26:40.285Z,12.80
2019-04-22T05:29:15.023Z,13.10
2019-04-22T05:31:44.236Z,13.90
2019-04-22T05:34:14.422Z,14.40
2019-04-22T05:36:48.078Z,15.10
2019-04-22T05:41:43.418Z,17.10
2019-04-22T05:44:14.476Z,18.30
2019-04-22T05:46:50.560Z,19.50
2019-04-22T05:51:48.045Z,20.90
2019-04-22T05:56:41.250Z,21.60
2019-04-22T05:59:19.067Z,21.60
2019-04-22T06:04:14.728Z,22.40
2019-04-22T06:06:46.935Z,23.40
2019-04-22T06:11:36.257Z,24.10
2019-04-22T06:14:21.940Z,23.90
2019-04-22T06:16:58.673Z,24.50
2019-04-22T06:19:38.531Z,24.40
2019-04-22T06:22:15.447Z,24.20
2019-04-22T06:27:10.326Z,25.80
2019-04-22T06:29:25.013Z,24.30
2019-04-22T06:32:17.603Z,24.20
2019-04-22T06:34:28.879Z,23.30
2019-04-22T06:37:11.908Z,23.00
2019-04-22T06:39:34.186Z,23.70
2019-04-22T06:42:11.039Z,24.40
2019-04-22T06:44:36.957Z,25.50
2019-04-22T06:47:42.652Z,24.20
2019-04-22T06:49:43.805Z,24.10
2019-04-22T06:52:16.885Z,24.90
2019-04-22T06:57:13.470Z,24.80
2019-04-22T06:59:42.666Z,25.40
2019-04-22T07:02:24.022Z,26.00
2019-04-22T07:04:51.997Z,25.80
2019-04-22T07:07:18.669Z,25.60
2019-04-22T07:12:26.049Z,27.50
2019-04-22T07:14:49.015Z,28.00
2019-04-22T07:17:23.163Z,27.00
2019-04-22T07:19:47.541Z,25.80
2019-04-22T07:22:21.557Z,26.60
2019-04-22T07:24:55.934Z,26.30
2019-04-22T07:27:22.450Z,27.30
2019-04-22T07:32:58.113Z,26.90
2019-04-22T07:34:59.576Z,27.60
2019-04-22T07:39:56.890Z,28.70
2019-04-22T07:42:34.477Z,28.40
2019-04-22T07:44:54.859Z,29.50
2019-04-22T07:47:36.012Z,29.20
2019-04-22T07:50:03.284Z,30.40
2019-04-22T07:52:31.875Z,28.90
2019-04-22T07:55:02.611Z,28.10
2019-04-22T07:57:32.378Z,29.00
2019-04-22T08:02:41.655Z,28.90
2019-04-22T08:10:12.422Z,28.50
2019-04-22T08:15:05.699Z,28.00
2019-04-22T08:20:08.422Z,28.80
2019-04-22T08:28:13.330Z,29.10
2019-04-22T08:30:44.427Z,29.60
2019-04-22T08:33:17.315Z,30.40
2019-04-22T08:38:16.213Z,30.50
2019-04-22T08:41:39.200Z,29.10
2019-04-22T08:44:09.996Z,30.30
2019-04-22T08:47:08.662Z,30.30
2019-04-22T08:49:10.496Z,30.40
2019-04-22T08:51:42.546Z,31.10
2019-04-22T08:54:17.972Z,31.60
2019-04-22T08:59:19.835Z,32.00
2019-04-22T09:01:52.020Z,32.40
2019-04-22T09:04:16.249Z,31.30
2019-04-22T09:07:10.497Z,33.00
2019-04-22T09:09:27.064Z,33.20
2019-04-22T09:14:32.503Z,33.80
2019-04-22T09:17:14.772Z,33.10
2019-04-22T09:19:30.893Z,33.00
2019-04-22T09:22:04.985Z,32.40
2019-04-22T09:24:32.588Z,31.20
2019-04-22T09:27:03.456Z,31.90
2019-04-22T09:29:40.738Z,32.30
2019-04-22T09:32:11.584Z,31.70
2019-04-22T09:34:40.224Z,30.50
2019-04-22T09:37:36.390Z,29.90
2019-04-22T09:39:41.094Z,30.00
2019-04-22T09:42:13.763Z,28.60
2019-04-22T09:47:11.781Z,29.70
2019-04-22T09:49:53.174Z,29.60
2019-04-22T09:54:59.781Z,27.40
2019-04-22T09:57:27.840Z,27.30
2019-04-22T10:00:02.740Z,27.00
2019-04-22T10:02:34.381Z,26.20
2019-04-22T10:07:45.077Z,26.20
2019-04-22T10:10:09.982Z,25.90
2019-04-22T10:12:36.987Z,26.30
2019-04-22T10:15:19.647Z,26.40
2019-04-22T10:17:37.333Z,25.80
2019-04-22T10:25:14.562Z,25.20
2019-04-22T10:27:39.761Z,25.60
2019-04-22T10:30:15.128Z,26.00
2019-04-22T10:32:42.085Z,25.60
2019-04-22T10:35:15.599Z,25.90
2019-04-22T10:37:42.700Z,25.40
2019-04-22T10:40:19.598Z,24.90
2019-04-22T10:42:49.485Z,25.10
2019-04-22T10:45:18.553Z,25.20
2019-04-22T10:47:47.993Z,24.70
2019-04-22T10:50:18.488Z,24.80
2019-04-22T10:52:47.700Z,24.80
2019-04-22T10:55:17.234Z,24.60
2019-04-22T10:57:46.511Z,24.60
2019-04-22T11:00:15.719Z,24.50
2019-04-22T11:02:45.767Z,24.60
2019-04-22T11:05:16.488Z,24.40
2019-04-22T11:07:51.838Z,24.60
2019-04-22T11:10:34.583Z,24.50
2019-04-22T11:15:34.858Z,24.70
2019-04-22T11:18:05.234Z,24.40
2019-04-22T11:20:33.986Z,24.80
2019-04-22T11:23:04.351Z,24.70
2019-04-22T11:25:34.124Z,24.40
2019-04-22T11:28:02.931Z,24.60
2019-04-22T11:30:32.351Z,24.50
2019-04-22T11:33:02.457Z,24.70
2019-04-22T11:35:32.052Z,24.80
2019-04-22T11:38:01.176Z,24.40
2019-04-22T11:40:37.822Z,24.50
2019-04-22T11:43:01.906Z,24.50
2019-04-22T11:45:31.260Z,24.80
2019-04-22T11:48:01.478Z,24.70
2019-04-22T11:50:30.575Z,24.90
2019-04-22T11:53:00.766Z,25.10
2019-04-22T11:55:30.739Z,25.00
2019-04-22T11:58:01.055Z,24.90
2019-04-22T12:00:32.865Z,25.00
2019-04-22T12:03:03.035Z,25.00
2019-04-22T12:05:32.418Z,25.00
2019-04-22T12:08:01.174Z,24.80
2019-04-22T12:10:38.995Z,24.60
2019-04-22T12:13:01.945Z,24.60
2019-04-22T12:15:31.341Z,24.90
2019-04-22T12:18:01.476Z,25.10
2019-04-22T12:20:30.494Z,25.20
2019-04-22T12:23:01.024Z,24.70
2019-04-22T12:25:42.342Z,24.80
2019-04-22T12:28:01.093Z,24.80
2019-04-22T12:30:29.995Z,24.90
2019-04-22T12:33:00.090Z,24.90
2019-04-22T12:35:30.112Z,24.90
2019-04-22T12:38:04.339Z,24.80
2019-04-22T12:40:38.287Z,24.80
2019-04-22T12:43:04.134Z,25.10
2019-04-22T12:45:30.397Z,25.00
2019-04-22T12:48:00.090Z,25.20
2019-04-22T12:50:33.847Z,25.10
2019-04-22T12:53:04.861Z,25.00
2019-04-22T12:55:32.265Z,25.10
2019-04-22T12:58:01.307Z,25.30
2019-04-22T13:00:30.232Z,25.60
2019-04-22T13:02:59.219Z,25.30
2019-04-22T13:05:29.113Z,25.40
2019-04-22T13:07:58.030Z,25.20
2019-04-22T13:10:39.101Z,25.30
2019-04-22T13:12:58.617Z,25.40
2019-04-22T13:15:28.844Z,25.30
2019-04-22T13:18:06.001Z,25.40
2019-04-22T13:20:28.173Z,25.50
2019-04-22T13:22:57.100Z,25.30
2019-04-22T13:25:28.447Z,25.40
2019-04-22T13:27:57.520Z,25.60
2019-04-22T13:30:28.286Z,25.60
2019-04-22T13:32:57.107Z,25.50
2019-04-22T13:35:26.176Z,25.50
2019-04-22T13:37:57.346Z,25.30
2019-04-22T13:40:26.030Z,25.40
2019-04-22T13:42:55.571Z,25.50
2019-04-22T13:45:25.588Z,25.60
2019-04-22T13:48:11.174Z,25.70
2019-04-22T13:53:42.560Z,25.80
2019-04-22T13:55:51.159Z,25.60
2019-04-22T13:58:08.714Z,25.50
2019-04-22T14:00:31.075Z,25.50
2019-04-22T14:03:28.908Z,25.40
2019-04-22T14:06:04.917Z,25.40
2019-04-22T14:08:35.260Z,25.60
2019-04-22T14:11:16.933Z,25.60
2019-04-22T14:13:34.549Z,25.60
2019-04-22T14:16:04.751Z,25.50
2019-04-22T14:18:34.789Z,25.60
2019-04-22T14:21:04.962Z,25.60
2019-04-22T14:23:34.884Z,25.70
2019-04-22T14:26:05.011Z,25.60
2019-04-22T14:28:35.455Z,25.60
2019-04-22T14:31:04.762Z,25.60
2019-04-22T14:33:34.134Z,25.50
2019-04-22T14:36:04.676Z,25.40
2019-04-22T14:38:34.672Z,25.50
2019-04-22T14:41:05.747Z,25.60
2019-04-22T14:44:24.249Z,25.70
2019-04-22T14:46:27.578Z,25.90
2019-04-22T14:48:57.620Z,26.00
2019-04-22T14:51:22.271Z,25.90
2019-04-22T14:53:59.981Z,25.70
2019-04-22T14:56:06.612Z,25.70
2019-04-22T14:58:35.213Z,25.70
2019-04-22T15:01:04.642Z,25.80
2019-04-22T15:03:33.473Z,25.70
2019-04-22T15:06:02.330Z,25.70
2019-04-22T15:08:31.151Z,25.70
2019-04-22T15:11:00.396Z,25.70
2019-04-22T15:13:29.492Z,25.80
2019-04-22T15:16:23.814Z,25.80
2019-04-22T15:19:11.757Z,25.70
2019-04-22T15:21:40.983Z,25.70
2019-04-22T15:24:29.432Z,25.70
2019-04-22T15:29:39.483Z,25.60
2019-04-22T15:32:09.252Z,25.70
2019-04-22T15:34:39.524Z,25.60
2019-04-22T15:37:08.422Z,25.60
2019-04-22T15:39:37.370Z,25.60
2019-04-22T15:42:12.264Z,25.60
2019-04-22T15:44:37.690Z,25.50
2019-04-22T15:47:07.000Z,25.40
2019-04-22T15:49:36.360Z,25.40
2019-04-22T15:54:37.609Z,25.50
2019-04-22T15:57:06.761Z,25.50
2019-04-22T15:59:52.193Z,25.30
2019-04-22T16:02:08.098Z,25.30
2019-04-22T16:04:36.890Z,25.30
2019-04-22T16:07:07.184Z,25.30
2019-04-22T16:09:36.764Z,25.40
2019-04-22T16:12:16.176Z,25.30
2019-04-22T16:14:41.892Z,25.40
2019-04-22T16:17:06.563Z,25.50
2019-04-22T16:19:35.333Z,25.50
2019-04-22T16:22:09.358Z,25.40
2019-04-22T16:25:08.982Z,25.40
2019-04-22T16:27:38.529Z,25.20
2019-04-22T16:30:07.614Z,25.10
2019-04-22T16:35:18.766Z,25.00
2019-04-22T16:37:48.600Z,24.90
2019-04-22T16:40:18.615Z,24.90
2019-04-22T16:42:54.533Z,24.90
2019-04-22T16:45:17.984Z,24.80
2019-04-22T16:47:47.515Z,24.70
2019-04-22T16:50:16.129Z,24.70
2019-04-22T16:52:45.922Z,24.70
2019-04-22T16:55:14.842Z,24.60
2019-04-22T16:57:44.075Z,24.60
2019-04-22T17:00:13.884Z,24.50
2019-04-22T17:02:56.029Z,24.50
2019-04-22T17:05:41.546Z,24.40
2019-04-22T17:08:12.214Z,24.40
2019-04-22T17:10:41.914Z,24.30
2019-04-22T17:13:16.887Z,24.20
2019-04-22T17:15:42.148Z,24.20
2019-04-22T17:18:11.042Z,24.10
2019-04-22T17:20:40.424Z,24.00
2019-04-22T17:23:09.579Z,23.90
2019-04-22T17:25:38.490Z,23.90
2019-04-22T17:28:07.780Z,23.80
2019-04-22T17:30:36.534Z,23.70
2019-04-22T17:33:05.398Z,23.60
2019-04-22T17:35:34.294Z,23.60
2019-04-22T17:38:14.295Z,23.50
2019-04-22T17:43:47.975Z,23.40
2019-04-22T17:46:12.049Z,23.30
2019-04-22T17:49:00.851Z,23.20
2019-04-22T17:51:31.493Z,23.10
2019-04-22T17:54:02.387Z,23.00
2019-04-22T17:56:32.432Z,22.90
2019-04-22T17:59:04.940Z,22.70
2019-04-22T18:01:32.669Z,22.60
2019-04-22T18:03:49.629Z,22.60
2019-04-22T18:06:44.062Z,22.50
2019-04-22T18:09:05.094Z,22.40
2019-04-22T18:11:44.644Z,22.50
2019-04-22T18:14:25.861Z,22.40
2019-04-22T18:16:44.052Z,22.30
2019-04-22T18:19:10.105Z,22.20
2019-04-22T18:21:40.660Z,22.10
2019-04-22T18:24:06.793Z,21.90
2019-04-22T18:26:43.704Z,21.90
2019-04-22T18:29:16.289Z,21.70
2019-04-22T18:31:35.339Z,21.70
2019-04-22T18:34:10.031Z,21.70
2019-04-22T18:36:40.571Z,21.50
2019-04-22T18:39:22.337Z,21.50
2019-04-22T18:41:48.422Z,21.40
2019-04-22T18:44:23.560Z,21.20
2019-04-22T18:46:52.377Z,21.20
2019-04-22T18:49:30.754Z,21.10
2019-04-22T18:52:18.469Z,20.90
2019-04-22T18:55:07.146Z,20.90
2019-04-22T18:58:08.478Z,20.90
2019-04-22T19:00:31.551Z,20.60
2019-04-22T19:03:08.929Z,20.60
2019-04-22T19:05:54.399Z,20.50
2019-04-22T19:08:28.687Z,20.40
2019-04-22T19:11:07.557Z,20.30
2019-04-22T19:16:15.186Z,20.20
2019-04-22T19:18:37.938Z,20.10
2019-04-22T19:21:07.970Z,20.00
2019-04-22T19:23:31.944Z,19.90
2019-04-22T19:26:15.491Z,20.00
2019-04-22T19:28:43.843Z,20.00
2019-04-22T19:31:13.796Z,20.00
2019-04-22T19:33:49.280Z,19.90
2019-04-22T19:36:14.694Z,19.90
2019-04-22T19:38:38.367Z,19.90
2019-04-22T19:41:19.743Z,19.80
2019-04-22T19:43:49.200Z,19.70
2019-04-22T19:46:18.252Z,19.70
2019-04-22T19:48:56.519Z,19.60
2019-04-22T19:51:32.013Z,19.60
2019-04-22T19:53:56.087Z,19.40
2019-04-22T19:56:22.683Z,19.30
2019-04-22T19:58:59.123Z,19.20
2019-04-22T20:01:56.878Z,19.20
2019-04-22T20:04:52.674Z,19.20
2019-04-22T20:07:17.825Z,18.90
2019-04-22T20:09:52.463Z,18.90
2019-04-22T20:12:18.457Z,18.90
2019-04-22T20:14:49.508Z,18.80
2019-04-22T20:17:26.584Z,18.90
2019-04-22T20:20:17.608Z,18.70
2019-04-22T20:22:23.355Z,18.70
2019-04-22T20:24:47.472Z,18.60
2019-04-22T20:27:33.200Z,18.50
2019-04-22T20:30:11.827Z,18.40
2019-04-22T20:32:35.631Z,18.30
2019-04-22T20:35:07.465Z,18.30
2019-04-22T20:37:42.642Z,18.20
2019-04-22T20:40:10.546Z,17.90
2019-04-22T20:45:11.758Z,17.80
2019-04-22T20:47:34.611Z,17.60
2019-04-22T20:50:15.982Z,17.70
2019-04-22T20:52:47.196Z,17.70
2019-04-22T20:55:08.023Z,17.70
2019-04-22T20:57:48.459Z,17.80
2019-04-22T21:00:11.989Z,17.90
2019-04-22T21:02:37.479Z,17.90
2019-04-22T21:05:03.191Z,17.70
2019-04-22T21:07:41.341Z,17.50
2019-04-22T21:10:14.544Z,17.40
2019-04-22T21:12:39.984Z,17.40
2019-04-22T21:15:28.453Z,17.60
2019-04-22T21:17:54.159Z,17.60
2019-04-22T21:20:26.161Z,17.40
2019-04-22T21:22:58.328Z,17.30
2019-04-22T21:25:21.938Z,17.20
2019-04-22T21:27:56.852Z,17.30
2019-04-22T21:30:32.285Z,17.10
2019-04-22T21:32:58.249Z,17.10
2019-04-22T21:35:50.318Z,17.00
2019-04-22T21:38:09.782Z,17.10
2019-04-22T21:40:35.587Z,17.00
2019-04-22T21:43:13.650Z,16.90
2019-04-22T21:45:35.369Z,16.80
2019-04-22T21:48:20.268Z,16.80
2019-04-22T21:53:29.314Z,16.80
2019-04-22T21:55:53.406Z,16.60
2019-04-22T21:58:34.617Z,16.40
2019-04-22T22:01:14.582Z,16.40
2019-04-22T22:03:42.932Z,16.40
2019-04-22T22:06:05.919Z,16.20
2019-04-22T22:08:45.978Z,16.30
2019-04-22T22:11:15.438Z,16.10
2019-04-22T22:13:48.836Z,16.00
2019-04-22T22:16:14.367Z,15.90
2019-04-22T22:18:55.285Z,15.90
2019-04-22T22:23:59.482Z,15.80
2019-04-22T22:26:19.227Z,15.80
2019-04-22T22:29:18.715Z,15.50
2019-04-22T22:31:37.635Z,15.50
2019-04-22T22:34:06.024Z,15.50
2019-04-22T22:36:27.148Z,15.60
2019-04-22T22:39:00.393Z,15.70
2019-04-22T22:41:14.125Z,15.60
2019-04-22T22:43:49.047Z,15.60
2019-04-22T22:46:29.236Z,15.50
2019-04-22T22:49:10.261Z,15.40
2019-04-22T22:51:47.479Z,15.20
2019-04-22T22:54:12.239Z,15.20
2019-04-22T22:56:47.477Z,15.10
2019-04-22T22:59:08.116Z,15.10
2019-04-22T23:01:46.882Z,15.00
2019-04-22T23:04:20.990Z,15.00
2019-04-22T23:06:53.331Z,14.90
2019-04-22T23:09:22.561Z,14.90
2019-04-22T23:12:06.113Z,14.70
2019-04-22T23:14:20.378Z,14.80
2019-04-22T23:16:41.919Z,14.80
2019-04-22T23:19:05.135Z,14.90
2019-04-22T23:21:43.296Z,14.80
2019-04-22T23:24:44.067Z,14.80
2019-04-22T23:27:16.063Z,14.80
2019-04-22T23:29:49.648Z,14.60
2019-04-22T23:32:21.293Z,14.50
2019-04-22T23:35:07.600Z,14.40
2019-04-22T23:37:39.632Z,14.50
2019-04-22T23:40:16.181Z,14.40
2019-04-22T23:42:44.607Z,14.40
2019-04-22T23:45:13.914Z,14.40
2019-04-22T23:47:35.157Z,14.40
2019-04-22T23:50:21.028Z,14.30
2019-04-22T23:52:52.945Z,14.30
2019-04-22T23:55:29.840Z,14.40
2019-04-22T23:58:11.999Z,14.40
